^^
Datos históricos de la estación: Murcia-Puente Tocinos
Diario Informe para Julio 28, 2021 Unidades:  Ingés    Métrico   Ambas
Diario Semanal Mensual Anual
  Máxima: Mínima: Promedio:
Temperatura: 86.4 °F 70.9 °F 78.8 °F
Punto de rocio: 71.2 °F 63.7 °F 67.3 °F
Humedad: 85% 50.8% 69%
Velocidad viento: 12.3mph 0mph 5.6mph
Racha viento: 23.5mph - -
Viento- - ENE
Presión: 29.9 in 29.8 in -
Precipitación: 0 in    
 
 
Tabla de datos para Julio 28, 2021
Hora Temperatura Punto de rocio Presión Viento Velocidad viento Racha viento Humedad Intensidad lluvia(por hora) Nubes
00:04 75.6 °F 68.5 °F 29.9 in NE 5.9 mph 8.1 mph 79% 0 in
00:09 75.6 °F 68.5 °F 29.9 in NNE 5.2 mph 8 mph 79% 0 in
00:14 75.4 °F 68.4 °F 29.9 in NNE 4.7 mph 7 mph 79% 0 in
00:19 75.4 °F 68.5 °F 29.9 in NNE 4.5 mph 5.9 mph 79.5% 0 in
00:24 75.4 °F 68.7 °F 29.9 in NNE 4.3 mph 6 mph 80% 0 in
00:29 75.4 °F 68.7 °F 29.9 in NE 3.9 mph 6 mph 80% 0 in
00:34 75.4 °F 68.7 °F 29.9 in NNE 3.6 mph 6 mph 80% 0 in
00:39 75.4 °F 68.7 °F 29.9 in NNE 3.3 mph 6 mph 80% 0 in
00:44 75.2 °F 68.5 °F 29.9 in NNE 3.1 mph 5.2 mph 80% 0 in
00:49 75 °F 68.7 °F 29.9 in NE 3 mph 5 mph 80.8% 0 in
00:54 75 °F 68.7 °F 29.9 in NE 2.9 mph 5 mph 81% 0 in
00:59 75 °F 68.7 °F 29.9 in NE 2 mph 4.6 mph 81% 0 in
01:04 75 °F 68.7 °F 29.9 in ENE 1.4 mph 5 mph 81% 0 in
01:09 75 °F 69.1 °F 29.9 in NE 1.7 mph 5.2 mph 81.7% 0 in
01:14 74.8 °F 69.1 °F 29.9 in NE 2 mph 5 mph 82% 0 in
01:19 74.8 °F 69.1 °F 29.9 in NE 2 mph 3.6 mph 82% 0 in
01:24 74.8 °F 69.1 °F 29.9 in North 2 mph 4 mph 82% 0 in
01:29 74.8 °F 69.1 °F 29.9 in North 2 mph 3 mph 82% 0 in
01:34 74.7 °F 68.9 °F 29.9 in North 2 mph 3 mph 82% 0 in
01:39 74.7 °F 68.7 °F 29.9 in North 1.9 mph 4.3 mph 82% 0 in
01:44 74.7 °F 68.7 °F 29.9 in NNO 1.8 mph 5 mph 82% 0 in
01:49 74.7 °F 68.7 °F 29.9 in NNO 1.9 mph 5 mph 82% 0 in
01:54 74.5 °F 68.5 °F 29.9 in NNO 2 mph 3 mph 82% 0 in
01:59 74.5 °F 68.5 °F 29.9 in NNO 1.9 mph 3.6 mph 82% 0 in
02:04 74.5 °F 68.7 °F 29.9 in NNO 1.8 mph 4 mph 82.4% 0 in
02:09 74.3 °F 68.5 °F 29.9 in NNO 1.8 mph 3.6 mph 82.2% 0 in
02:14 74.1 °F 68.7 °F 29.9 in ENE 1.8 mph 4 mph 83% 0 in
02:19 74.1 °F 68.5 °F 29.9 in Este 2.2 mph 4.6 mph 83% 0 in
02:24 73.8 °F 67.8 °F 29.9 in Este 2.4 mph 5.2 mph 81.4% 0 in
02:29 73.4 °F 66.4 °F 29.9 in Este 2.7 mph 5 mph 78.7% 0 in
02:34 72.9 °F 64.9 °F 29.9 in Este 2.9 mph 5 mph 76.3% 0 in
02:39 72.9 °F 64.8 °F 29.9 in Este 2.9 mph 5 mph 76% 0 in
02:44 72.7 °F 64.8 °F 29.9 in Este 2.9 mph 3.6 mph 76% 0 in
02:49 72.9 °F 64.8 °F 29.9 in ENE 2.2 mph 4 mph 76% 0 in
02:54 72.9 °F 64.6 °F 29.9 in ENE 1.8 mph 2.9 mph 75.2% 0 in
02:59 72.9 °F 64.4 °F 29.9 in ENE 1.8 mph 4.6 mph 75% 0 in
03:04 72.7 °F 64.6 °F 29.9 in ENE 1.8 mph 5 mph 75.7% 0 in
03:09 72.7 °F 64.8 °F 29.9 in ENE 1.8 mph 3.6 mph 76% 0 in
03:14 72.7 °F 64.8 °F 29.9 in ENE 1.8 mph 4 mph 76% 0 in
03:19 72.7 °F 64.4 °F 29.9 in Este 1.9 mph 4.6 mph 75.3% 0 in
03:24 72.7 °F 64.2 °F 29.9 in Este 2 mph 5 mph 75% 0 in
03:29 72.5 °F 64 °F 29.9 in Este 2 mph 4.6 mph 75% 0 in
03:34 72.3 °F 63.9 °F 29.9 in Este 2 mph 5 mph 75% 0 in
03:39 72.3 °F 63.7 °F 29.9 in ESE 2 mph 4 mph 74.4% 0 in
03:44 72.3 °F 63.9 °F 29.9 in Este 2 mph 3.5 mph 74.7% 0 in
03:49 72.5 °F 64 °F 29.9 in ENE 2 mph 3.6 mph 75% 0 in
03:54 72.5 °F 64.2 °F 29.9 in ENE 2 mph 4 mph 75.3% 0 in
03:59 72.5 °F 64.6 °F 29.9 in ENE 2 mph 4 mph 76.2% 0 in
04:04 72.7 °F 65.1 °F 29.9 in NE 2 mph 4 mph 77% 0 in
04:09 72.7 °F 65.3 °F 29.9 in NE 1.9 mph 3.6 mph 77.4% 0 in
04:14 72.9 °F 66 °F 29.9 in NE 1.8 mph 4.6 mph 79% 0 in
04:19 72.9 °F 66.4 °F 29.9 in NNE 2.2 mph 5 mph 80% 0 in
04:24 72.7 °F 66.4 °F 29.9 in North 2.4 mph 5 mph 80.3% 0 in
04:29 72.7 °F 66.6 °F 29.9 in North 2.1 mph 4 mph 81% 0 in
04:34 72.3 °F 66.4 °F 29.9 in North 1.8 mph 3.6 mph 81.2% 0 in
04:39 72.3 °F 66.6 °F 29.9 in North 1.8 mph 4 mph 82% 0 in
04:44 72.1 °F 66.6 °F 29.9 in North 1.8 mph 4 mph 82.7% 0 in
04:49 72 °F 66.6 °F 29.9 in North 1.6 mph 2.4 mph 83% 0 in
04:54 72 °F 66.6 °F 29.9 in North 1.4 mph 2.3 mph 83.4% 0 in
04:59 71.8 °F 66.7 °F 29.9 in North 1.4 mph 3.5 mph 84% 0 in
05:04 71.8 °F 66.7 °F 29.9 in North 1.4 mph 3.5 mph 84% 0 in
05:09 71.8 °F 66.9 °F 29.9 in North 1.6 mph 3 mph 84.7% 0 in
05:14 71.8 °F 66.9 °F 29.9 in North 1.8 mph 2.4 mph 85% 0 in
05:19 71.8 °F 66.9 °F 29.9 in North 1.6 mph 2.4 mph 85% 0 in
05:24 71.8 °F 66.9 °F 29.9 in North 1.4 mph 2.3 mph 85% 0 in
05:29 71.6 °F 66.7 °F 29.9 in North 0.6 mph 2 mph 85% 0 in
05:34 71.4 °F 66.7 °F 29.9 in Calm   3.5 mph 85% 0 in
05:39 71.4 °F 66.4 °F 29.9 in ESE 1.1 mph 3.5 mph 84.1% 0 in
05:44 71.4 °F 66.4 °F 29.9 in ESE 1.8 mph 3 mph 84% 0 in
05:49 71.2 °F 66.2 °F 29.9 in SE 0.7 mph 2.9 mph 84% 0 in
05:54 71.2 °F 66.2 °F 29.9 in Calm   3.6 mph 84% 0 in
05:59 71.2 °F 66.2 °F 29.9 in ESE 1.2 mph 4 mph 84% 0 in
06:04 71.2 °F 66.2 °F 29.9 in ESE 1.8 mph 2 mph 84% 0 in
06:09 71.2 °F 66.2 °F 29.9 in ESE 0.7 mph   84% 0 in
06:14 71.2 °F 66.2 °F 29.8 in Calm   2.4 mph 84% 0 in
06:19 71.2 °F 66 °F 29.8 in Calm   2.9 mph 83.4% 0 in
06:24 71.1 °F 65.7 °F 29.9 in Calm   2.3 mph 83% 0 in
06:29 71.1 °F 65.7 °F 29.9 in Calm   2 mph 83% 0 in
06:34 71.1 °F 65.5 °F 29.9 in Calm     83% 0 in
06:39 70.9 °F 65.5 °F 29.9 in Calm     83% 0 in
06:44 70.9 °F 65.5 °F 29.9 in Calm   2.3 mph 83% 0 in
06:49 71.1 °F 65.8 °F 29.9 in Calm   2.4 mph 83.6% 0 in
06:54 71.1 °F 65.8 °F 29.9 in Calm   2.4 mph 83.3% 0 in
06:59 71.1 °F 65.7 °F 29.9 in ENE 0.9 mph 2.9 mph 83% 0 in
07:04 71.1 °F 65.7 °F 29.9 in ESE 1.4 mph 3.5 mph 82.9% 0 in
07:09 71.1 °F 65.7 °F 29.9 in ESE 1.4 mph 3 mph 83% 0 in
07:14 71.1 °F 65.7 °F 29.9 in ESE 1.4 mph 2 mph 83% 0 in
07:19 71.1 °F 65.7 °F 29.9 in ESE 0.6 mph 3.6 mph 83% 0 in
07:24 71.1 °F 65.5 °F 29.9 in Calm   4 mph 82.8% 0 in
07:29 71.2 °F 65.5 °F 29.9 in SE 1.4 mph 4.7 mph 82% 0 in
07:34 71.2 °F 65.5 °F 29.9 in SE 2.4 mph 5.2 mph 82% 0 in
07:39 71.2 °F 65.5 °F 29.9 in SSE 2.8 mph 5.9 mph 82% 0 in
07:44 71.2 °F 65.5 °F 29.9 in SSE 3.1 mph 6.9 mph 82% 0 in
07:49 71.2 °F 65.5 °F 29.9 in SSE 3.7 mph 7 mph 82% 0 in
07:54 71.2 °F 65.7 °F 29.9 in SSE 4 mph 6 mph 82.8% 0 in
07:59 71.2 °F 65.8 °F 29.9 in SSE 3.4 mph 6 mph 83% 0 in
08:04 71.6 °F 66.2 °F 29.9 in SSE 3.1 mph 4 mph 83% 0 in
08:09 72 °F 66.2 °F 29.9 in Sur 2.7 mph 4 mph 82.4% 0 in
08:14 72.1 °F 66.4 °F 29.9 in SSO 2.4 mph 4.7 mph 82% 0 in
08:19 72.5 °F 66.4 °F 29.9 in Oeste 2.2 mph 5 mph 81% 0 in
08:24 72.7 °F 66.6 °F 29.9 in OSO 2 mph 5.2 mph 80.9% 0 in
08:29 72.9 °F 66.2 °F 29.9 in SO 2.6 mph 5.2 mph 80% 0 in
08:34 73 °F 66.4 °F 29.9 in OSO 3.1 mph 6.9 mph 79.6% 0 in
08:39 73 °F 66 °F 29.9 in OSO 3.7 mph 8.1 mph 78.8% 0 in
08:44 73 °F 66.2 °F 29.9 in OSO 4 mph 8 mph 79% 0 in
08:49 73.2 °F 66 °F 29.9 in OSO 4 mph 6.2 mph 78.3% 0 in
08:54 73.2 °F 66 °F 29.9 in OSO 4 mph 6.9 mph 78% 0 in
08:59 73.6 °F 66.2 °F 29.9 in OSO 4 mph 7 mph 78% 0 in
09:04 73.8 °F 66.4 °F 29.9 in SO 4 mph 6 mph 78% 0 in
09:09 73.9 °F 66.6 °F 29.9 in SSO 3.4 mph 6 mph 78% 0 in
09:14 74.3 °F 66.9 °F 29.9 in Sur 2.9 mph 5.8 mph 77.6% 0 in
09:19 74.7 °F 66.7 °F 29.9 in SSO 2.9 mph 6.2 mph 76.3% 0 in
09:24 74.8 °F 66.7 °F 29.9 in OSO 2.9 mph 6 mph 76% 0 in
09:29 75.4 °F 67.3 °F 29.9 in SO 2.4 mph 5 mph 76.2% 0 in
09:34 76.3 °F 67.5 °F 29.9 in ESE 2 mph 4 mph 74.5% 0 in
09:39 76.8 °F 67.3 °F 29.9 in OSO 1.9 mph 4 mph 72.7% 0 in
09:44 77.2 °F 67.1 °F 29.9 in OSO 1.8 mph 4.7 mph 71.2% 0 in
09:49 77.2 °F 66.7 °F 29.9 in Oeste 2.2 mph 5 mph 70.5% 0 in
09:54 77.4 °F 66.9 °F 29.9 in NO 2.4 mph 5 mph 70.5% 0 in
09:59 77.9 °F 67.1 °F 29.9 in ENE 2.4 mph 5 mph 69.4% 0 in
10:04 78.3 °F 66.9 °F 29.9 in Este 2.4 mph 5 mph 68.5% 0 in
10:09 78.4 °F 67.1 °F 29.9 in SO 2.4 mph 5 mph 68.1% 0 in
10:14 78.8 °F 67.1 °F 29.9 in NNE 2.4 mph 5 mph 67.3% 0 in
10:19 79.3 °F 67.1 °F 29.9 in NE 2.2 mph 5 mph 66.3% 0 in
10:24 79.9 °F 66.7 °F 29.9 in NNE 2 mph 5.2 mph 64.5% 0 in
10:29 80.1 °F 66.6 °F 29.9 in North 2.2 mph 5 mph 63.5% 0 in
10:34 80.4 °F 66.7 °F 29.9 in NNE 2.4 mph 3.6 mph 63% 0 in
10:39 80.8 °F 67.1 °F 29.9 in Este 2.1 mph 6.2 mph 63% 0 in
10:44 81.1 °F 67.3 °F 29.9 in North 1.8 mph 6 mph 63% 0 in
10:49 81.3 °F 67.3 °F 29.9 in NNE 2.5 mph 6.2 mph 62.7% 0 in
10:54 81.5 °F 67.3 °F 29.9 in North 3.1 mph 6 mph 62% 0 in
10:59 81.3 °F 66 °F 29.9 in NE 3.7 mph 9.2 mph 59.6% 0 in
11:04 81 °F 65.5 °F 29.9 in NNE 4 mph 11.5 mph 59.5% 0 in
11:09 81.1 °F 66 °F 29.9 in NNE 5.2 mph 12 mph 60.1% 0 in
11:14 81.1 °F 65.5 °F 29.9 in NE 5.9 mph 12.5 mph 59% 0 in
11:19 81.3 °F 64.8 °F 29.9 in NE 6.8 mph 13 mph 57.1% 0 in
11:24 81.9 °F 65.5 °F 29.9 in NNE 7.4 mph 13 mph 57.9% 0 in
11:29 82.4 °F 66.6 °F 29.9 in NE 6.8 mph 14 mph 59% 0 in
11:34 82.6 °F 66.4 °F 29.9 in NNE 6.4 mph 15 mph 58.4% 0 in
11:39 82.6 °F 66.7 °F 29.9 in NNE 7.7 mph 15.2 mph 59% 0 in
11:44 82.6 °F 66.7 °F 29.9 in NE 8.7 mph 15 mph 59% 0 in
11:49 82.6 °F 66.9 °F 29.9 in NE 9 mph 15 mph 59.1% 0 in
11:54 82.9 °F 66.6 °F 29.9 in NE 9.2 mph 14 mph 58.1% 0 in
11:59 83.3 °F 66.9 °F 29.9 in NNE 8.9 mph 14 mph 58% 0 in
12:04 83.7 °F 67.6 °F 29.9 in NE 8.7 mph 15.6 mph 58.9% 0 in
12:09 83.7 °F 67.5 °F 29.9 in NE 9 mph 16.1 mph 58.2% 0 in
12:14 83.7 °F 67.1 °F 29.9 in NNE 9.2 mph 18.4 mph 57.4% 0 in
12:19 83.7 °F 66.9 °F 29.9 in NE 9.5 mph 18 mph 57.1% 0 in
12:24 84 °F 66.7 °F 29.9 in NE 9.7 mph 17.3 mph 56.4% 0 in
12:29 83.8 °F 66.7 °F 29.9 in NE 9.9 mph 17 mph 56.5% 0 in
12:34 84 °F 67.3 °F 29.9 in NNE 10 mph 16.3 mph 57.1% 0 in
12:39 84 °F 67.3 °F 29.9 in NE 9.8 mph 16.1 mph 57.1% 0 in
12:44 84 °F 67.5 °F 29.9 in NE 9.7 mph 16 mph 57.6% 0 in
12:49 84.2 °F 67.3 °F 29.9 in NE 9.7 mph 18.1 mph 57.2% 0 in
12:54 84 °F 67.1 °F 29.9 in NE 9.7 mph 18.4 mph 57% 0 in
12:59 84.2 °F 67.6 °F 29.9 in NE 9.4 mph 18 mph 57.9% 0 in
13:04 84.4 °F 68.4 °F 29.9 in NE 9.2 mph 15 mph 58.6% 0 in
13:09 84.7 °F 68 °F 29.9 in NE 9.5 mph 16.1 mph 57.3% 0 in
13:14 84.7 °F 67.8 °F 29.9 in NE 9.7 mph 16.1 mph 57.1% 0 in
13:19 84.9 °F 67.6 °F 29.9 in NE 9.4 mph 16 mph 56.1% 0 in
13:24 85.3 °F 67.6 °F 29.9 in NE 9.2 mph 15 mph 56% 0 in
13:29 84.9 °F 67.5 °F 29.9 in NE 9.2 mph 16.3 mph 56% 0 in
13:34 84.9 °F 67.3 °F 29.9 in NE 9.2 mph 16 mph 55.7% 0 in
13:39 85.3 °F 67.5 °F 29.9 in NE 8.9 mph 15.2 mph 55.2% 0 in
13:44 85.5 °F 67.3 °F 29.9 in NE 8.7 mph 15.2 mph 54.7% 0 in
13:49 85.5 °F 67.3 °F 29.9 in NE 8.7 mph 16.3 mph 54.5% 0 in
13:54 85.5 °F 67.5 °F 29.9 in NE 8.7 mph 16.1 mph 55% 0 in
13:59 85.6 °F 67.5 °F 29.9 in NNE 9.3 mph 16 mph 54.8% 0 in
14:04 85.6 °F 67.3 °F 29.9 in NE 9.7 mph 16.3 mph 54.2% 0 in
14:09 85.6 °F 67.5 °F 29.9 in NE 9.4 mph 16 mph 54.6% 0 in
14:14 86 °F 67.5 °F 29.9 in NE 9.2 mph 16.1 mph 54.1% 0 in
14:19 86 °F 67.3 °F 29.9 in NE 8.9 mph 17.8 mph 53.6% 0 in
14:24 86 °F 66.7 °F 29.9 in NE 8.7 mph 18.4 mph 52.8% 0 in
14:29 85.8 °F 67.1 °F 29.9 in NE 9.5 mph 18 mph 53.5% 0 in
14:34 85.6 °F 67.1 °F 29.9 in NE 10 mph 18.5 mph 54.1% 0 in
14:39 85.5 °F 67.1 °F 29.9 in NE 10.7 mph 19 mph 54.2% 0 in
14:44 85.6 °F 67.5 °F 29.9 in NE 11.2 mph 17 mph 54.4% 0 in
14:49 86 °F 66.6 °F 29.9 in NE 10.6 mph 18.1 mph 52.6% 0 in
14:54 85.8 °F 66.9 °F 29.9 in NE 10 mph 18.4 mph 53.5% 0 in
14:59 86.2 °F 67.1 °F 29.9 in NE 9.5 mph 18 mph 53.1% 0 in
15:04 86.2 °F 67.1 °F 29.9 in NE 9.2 mph 18.4 mph 53% 0 in
15:09 86.4 °F 66.9 °F 29.9 in NE 9.7 mph 18.1 mph 52.6% 0 in
15:14 86.2 °F 66.2 °F 29.9 in NE 10 mph 18.4 mph 51.4% 0 in
15:19 86.4 °F 66.4 °F 29.9 in NE 10.4 mph 18 mph 51.7% 0 in
15:24 86.4 °F 66.4 °F 29.9 in NE 10.7 mph 19.6 mph 51.6% 0 in
15:29 86 °F 66.4 °F 29.9 in NE 10.7 mph 20 mph 52.2% 0 in
15:34 86 °F 66.4 °F 29.9 in NE 10.7 mph 21.3 mph 52% 0 in
15:39 86.4 °F 66 °F 29.9 in NE 10.7 mph 21 mph 51% 0 in
15:44 86.4 °F 66 °F 29.9 in NE 10.7 mph 20.7 mph 50.8% 0 in
15:49 86.2 °F 66.2 °F 29.9 in NE 11.1 mph 21 mph 51.4% 0 in
15:54 86.2 °F 66.9 °F 29.9 in NE 11.4 mph 16.8 mph 52.8% 0 in
15:59 86.4 °F 66.7 °F 29.9 in NE 10.6 mph 20.7 mph 52.1% 0 in
16:04 86.2 °F 66.4 °F 29.9 in NE 10 mph 21 mph 51.9% 0 in
16:09 86.2 °F 66.7 °F 29.9 in NE 10.4 mph 19 mph 52.4% 0 in
16:14 86.4 °F 67.1 °F 29.9 in NE 10.7 mph 18.5 mph 52.8% 0 in
16:19 86 °F 66.9 °F 29.9 in NE 10.7 mph 19 mph 53.3% 0 in
16:24 85.8 °F 67.3 °F 29.9 in NE 10.7 mph 17.3 mph 53.9% 0 in
16:29 86.2 °F 67.1 °F 29.9 in NE 10.7 mph 17.3 mph 53.1% 0 in
16:34 85.8 °F 67.5 °F 29.9 in NE 10.7 mph 17.5 mph 54.2% 0 in
16:39 85.6 °F 67.8 °F 29.9 in NE 11.4 mph 17.5 mph 55.2% 0 in
16:44 85.5 °F 67.5 °F 29.9 in NE 11.8 mph 19 mph 54.9% 0 in
16:49 85.5 °F 68 °F 29.9 in NE 12.1 mph 19.7 mph 56.1% 0 in
16:54 85.5 °F 68.4 °F 29.9 in NE 12.3 mph 20 mph 56.7% 0 in
16:59 85.6 °F 67.8 °F 29.9 in ENE 11.1 mph 19 mph 55.3% 0 in
17:04 85.6 °F 67.8 °F 29.9 in NE 10.2 mph 17.5 mph 55.4% 0 in
17:09 85.1 °F 68 °F 29.9 in NE 10.8 mph 19.6 mph 56.7% 0 in
17:14 84.7 °F 68.5 °F 29.9 in NE 11.2 mph 23 mph 58.5% 0 in
17:19 84.7 °F 68.5 °F 29.9 in NE 11.9 mph 23.5 mph 58.3% 0 in
17:24 84.7 °F 68.5 °F 29.9 in NE 12.3 mph 23 mph 58.3% 0 in
17:29 84.9 °F 68 °F 29.9 in NE 11.4 mph 21.3 mph 57.2% 0 in
17:34 84.7 °F 67.8 °F 29.9 in NE 10.7 mph 21 mph 57% 0 in
17:39 84.6 °F 67.8 °F 29.9 in NE 11.4 mph 19 mph 57.4% 0 in
17:44 84.6 °F 68.2 °F 29.9 in NE 11.8 mph 19.7 mph 58% 0 in
17:49 84.4 °F 68.4 °F 29.9 in NE 12.1 mph 21.3 mph 58.8% 0 in
17:54 84.6 °F 68.2 °F 29.9 in NE 12.3 mph 23.5 mph 58% 0 in
17:59 84.4 °F 68 °F 29.9 in NE 11.7 mph 23 mph 58% 0 in
18:04 84.4 °F 68 °F 29.9 in NE 11.4 mph 17.3 mph 58% 0 in
18:09 84.4 °F 68.2 °F 29.9 in NE 11.4 mph 20.7 mph 58.4% 0 in
18:14 84 °F 67.8 °F 29.9 in NE 11.4 mph 21 mph 58.1% 0 in
18:19 83.8 °F 67.3 °F 29.9 in NE 11.4 mph 20.7 mph 57.4% 0 in
18:24 83.8 °F 67.5 °F 29.9 in NE 11.4 mph 21 mph 57.9% 0 in
18:29 83.8 °F 67.3 °F 29.9 in NE 11.4 mph 20 mph 57.4% 0 in
18:34 84.2 °F 67.3 °F 29.9 in ENE 11.4 mph 17 mph 57% 0 in
18:39 84.2 °F 67.1 °F 29.9 in ENE 9.8 mph 20.7 mph 56.7% 0 in
18:44 84 °F 66.7 °F 29.9 in NE 8.7 mph 21 mph 56.3% 0 in
18:49 84 °F 66.7 °F 29.9 in NE 9.3 mph 15 mph 56.3% 0 in
18:54 84.6 °F 66.7 °F 29.9 in ENE 9.7 mph 16.1 mph 55.4% 0 in
18:59 84.6 °F 66.7 °F 29.9 in ENE 8.2 mph 16 mph 55% 0 in
19:04 84.7 °F 66.6 °F 29.9 in NE 7.4 mph 14 mph 54.5% 0 in
19:09 84.7 °F 66.6 °F 29.9 in Este 7.1 mph 15.2 mph 54.7% 0 in
19:14 84.4 °F 66.4 °F 29.9 in ENE 6.9 mph 17.3 mph 55% 0 in
19:19 84 °F 66.6 °F 29.9 in NE 7.9 mph 17 mph 55.8% 0 in
19:24 83.8 °F 66.7 °F 29.9 in NE 8.7 mph 16 mph 56.5% 0 in
19:29 83.7 °F 66.7 °F 29.9 in NE 8.3 mph 16.1 mph 56.8% 0 in
19:34 83.7 °F 67.1 °F 29.9 in NNE 8.1 mph 16 mph 57.8% 0 in
19:39 83.5 °F 68 °F 29.9 in NE 8.3 mph 14 mph 59.7% 0 in
19:44 83.1 °F 68 °F 29.9 in NE 8.5 mph 14 mph 60.1% 0 in
19:49 82.9 °F 67.8 °F 29.9 in NE 8.6 mph 15 mph 60.6% 0 in
19:54 82.9 °F 68.7 °F 29.9 in ENE 8.7 mph 15 mph 62.3% 0 in
19:59 82.8 °F 68.9 °F 29.9 in NE 7.5 mph 14 mph 63% 0 in
20:04 82.8 °F 68.9 °F 29.9 in NE 6.9 mph 10.7 mph 63% 0 in
20:09 82.8 °F 68.7 °F 29.9 in NE 6.6 mph 13.8 mph 63% 0 in
20:14 82.4 °F 68.7 °F 29.9 in NE 6.4 mph 15.2 mph 63.5% 0 in
20:19 82.2 °F 68.7 °F 29.9 in NE 7.6 mph 15 mph 64% 0 in
20:24 81.9 °F 68.5 °F 29.9 in NE 8.5 mph 14 mph 64% 0 in
20:29 81.9 °F 68.4 °F 29.9 in NE 8.6 mph 14 mph 64% 0 in
20:34 81.7 °F 68.4 °F 29.9 in NE 8.7 mph 14 mph 64.1% 0 in
20:39 81.3 °F 68.4 °F 29.9 in NE 9 mph 15 mph 65% 0 in
20:44 81.3 °F 68.4 °F 29.9 in NE 9.2 mph 15 mph 65% 0 in
20:49 81.3 °F 68.4 °F 29.9 in NE 8.2 mph 13 mph 65% 0 in
20:54 81.1 °F 68.5 °F 29.9 in NE 7.4 mph 12.7 mph 65.4% 0 in
20:59 81 °F 68.9 °F 29.9 in NE 7.1 mph 13 mph 66.8% 0 in
21:04 81 °F 68.9 °F 29.9 in NE 6.9 mph 12.5 mph 67% 0 in
21:09 80.6 °F 69.1 °F 29.9 in NE 7.2 mph 13.8 mph 67.8% 0 in
21:14 80.4 °F 69.3 °F 29.9 in NE 7.4 mph 14 mph 69% 0 in
21:19 80.2 °F 69.4 °F 29.9 in NE 7.5 mph 13 mph 69.8% 0 in
21:24 80.1 °F 69.4 °F 29.9 in NE 7.6 mph 11.5 mph 70% 0 in
21:29 79.9 °F 69.6 °F 29.9 in NE 7.1 mph 12 mph 71% 0 in
21:34 79.9 °F 69.6 °F 29.9 in NE 6.9 mph 9.2 mph 71% 0 in
21:39 79.7 °F 69.4 °F 29.9 in NE 6 mph 9 mph 71% 0 in
21:44 79.5 °F 69.6 °F 29.9 in NE 5.4 mph 9.2 mph 71.7% 0 in
21:49 79.3 °F 69.6 °F 29.9 in NE 5 mph 9.7 mph 72% 0 in
21:54 79.3 °F 69.8 °F 29.9 in NE 4.7 mph 10 mph 72.9% 0 in
21:59 79.2 °F 69.8 °F 29.9 in NE 4.5 mph 8.5 mph 73% 0 in
22:04 79.2 °F 70.2 °F 29.9 in NE 4.3 mph 9 mph 74% 0 in
22:09 79 °F 70.2 °F 29.9 in NE 4.8 mph 8 mph 74.7% 0 in
22:14 78.6 °F 70.2 °F 29.9 in ENE 5.2 mph 8.1 mph 75% 0 in
22:19 78.6 °F 70.3 °F 29.9 in NE 4.7 mph 8 mph 75.8% 0 in
22:24 78.4 °F 70.3 °F 29.9 in NE 4.3 mph 7 mph 76% 0 in
22:29 78.4 °F 70.2 °F 29.9 in NE 4.1 mph 7.4 mph 76.1% 0 in
22:34 78.4 °F 70.5 °F 29.9 in NE 4 mph 7 mph 77% 0 in
22:39 78.3 °F 70.5 °F 29.9 in NE 4 mph 8.5 mph 77% 0 in
22:44 78.3 °F 70.5 °F 29.9 in ENE 4 mph 9 mph 77% 0 in
22:49 78.3 °F 70.7 °F 29.9 in NE 3.5 mph 6 mph 77.5% 0 in
22:54 78.3 °F 70.7 °F 29.9 in NE 3.1 mph 6.2 mph 78% 0 in
22:59 78.1 °F 70.7 °F 29.9 in NNE 3.7 mph 6.2 mph 78.4% 0 in
23:04 77.7 °F 70.7 °F 29.9 in NE 4 mph 6.9 mph 79% 0 in
23:09 77.7 °F 70.7 °F 29.9 in NE 4.2 mph 9.7 mph 79.2% 0 in
23:14 77.7 °F 71.1 °F 29.9 in NE 4.3 mph 10 mph 80% 0 in
23:19 77.5 °F 70.9 °F 29.9 in NE 4.3 mph 6.2 mph 80% 0 in
23:24 77.5 °F 70.9 °F 29.9 in NE 4.3 mph 6.2 mph 80.1% 0 in
23:29 77.4 °F 71.1 °F 29.9 in NE 4.2 mph 6.9 mph 81% 0 in
23:34 77.4 °F 71.1 °F 29.9 in NE 4 mph 9.7 mph 81% 0 in
23:39 77.2 °F 71.2 °F 29.9 in NE 5.1 mph 10 mph 82% 0 in
23:44 77.2 °F 71.2 °F 29.9 in NE 5.9 mph 9 mph 82% 0 in
23:49 77.2 °F 71.2 °F 29.9 in NNE 5.5 mph 8.1 mph 82% 0 in
23:54 77 °F 71.1 °F 29.9 in NNE 5.2 mph 8.1 mph 82% 0 in
23:59 76.8 °F 71.2 °F 29.9 in NNE 4.7 mph 8 mph 82.7% 0 in
Murcia-Puente Tocinos, España
Compliments of Weather Underground - 2.75 mb

La estación de MeteoMurcia.com, publica sus datos en los siguientes proyectos:

Weather Underground PWS IMURCIAP2 Meteoclimatic www.awekas.at

W3Counter
Web Analytics